sensor_id;sensor_type;location;lat;lon;timestamp;P1;durP1;ratioP1;P2;durP2;ratioP2
59788;SDS011;47353;51.614;5.530;2023-06-10T00:00:48;9.48;;;8.20;;
59788;SDS011;47353;51.614;5.530;2023-06-10T00:03:15;11.80;;;8.55;;
59788;SDS011;47353;51.614;5.530;2023-06-10T00:05:41;10.23;;;8.50;;
59788;SDS011;47353;51.614;5.530;2023-06-10T00:08:06;9.13;;;8.10;;
59788;SDS011;47353;51.614;5.530;2023-06-10T00:10:35;9.45;;;8.45;;
59788;SDS011;47353;51.614;5.530;2023-06-10T00:13:02;10.35;;;7.90;;
59788;SDS011;47353;51.614;5.530;2023-06-10T00:15:29;9.45;;;8.35;;
59788;SDS011;47353;51.614;5.530;2023-06-10T00:17:54;9.05;;;8.20;;
59788;SDS011;47353;51.614;5.530;2023-06-10T00:20:20;10.07;;;8.75;;
59788;SDS011;47353;51.614;5.530;2023-06-10T00:22:48;9.57;;;8.50;;
59788;SDS011;47353;51.614;5.530;2023-06-10T00:25:17;9.57;;;8.60;;
59788;SDS011;47353;51.614;5.530;2023-06-10T00:27:43;9.57;;;8.68;;
59788;SDS011;47353;51.614;5.530;2023-06-10T00:30:09;9.57;;;8.20;;
59788;SDS011;47353;51.614;5.530;2023-06-10T00:32:35;11.82;;;9.23;;
59788;SDS011;47353;51.614;5.530;2023-06-10T00:35:02;9.23;;;8.23;;
59788;SDS011;47353;51.614;5.530;2023-06-10T00:37:28;9.43;;;8.43;;
59788;SDS011;47353;51.614;5.530;2023-06-10T00:39:54;9.75;;;8.75;;
59788;SDS011;47353;51.614;5.530;2023-06-10T00:42:20;10.95;;;9.00;;
59788;SDS011;47353;51.614;5.530;2023-06-10T00:44:47;12.27;;;8.52;;
59788;SDS011;47353;51.614;5.530;2023-06-10T00:47:12;9.73;;;8.82;;
59788;SDS011;47353;51.614;5.530;2023-06-10T00:49:38;9.50;;;7.95;;
59788;SDS011;47353;51.614;5.530;2023-06-10T00:52:04;10.82;;;8.75;;
59788;SDS011;47353;51.614;5.530;2023-06-10T00:54:31;9.35;;;8.32;;
59788;SDS011;47353;51.614;5.530;2023-06-10T00:56:59;9.32;;;8.20;;
59788;SDS011;47353;51.614;5.530;2023-06-10T00:59:26;9.65;;;8.68;;
59788;SDS011;47353;51.614;5.530;2023-06-10T01:01:53;10.15;;;8.68;;
59788;SDS011;47353;51.614;5.530;2023-06-10T01:04:20;8.88;;;7.97;;
59788;SDS011;47353;51.614;5.530;2023-06-10T01:12:33;9.77;;;8.77;;
59788;SDS011;47353;51.614;5.530;2023-06-10T01:15:04;10.98;;;9.88;;
59788;SDS011;47353;51.614;5.530;2023-06-10T01:17:30;11.07;;;9.40;;
59788;SDS011;47353;51.614;5.530;2023-06-10T01:19:57;10.02;;;9.02;;
59788;SDS011;47353;51.614;5.530;2023-06-10T01:22:23;15.82;;;9.90;;
59788;SDS011;47353;51.614;5.530;2023-06-10T01:24:49;10.60;;;9.55;;
59788;SDS011;47353;51.614;5.530;2023-06-10T01:27:15;10.43;;;9.35;;
59788;SDS011;47353;51.614;5.530;2023-06-10T01:29:45;10.63;;;9.60;;
59788;SDS011;47353;51.614;5.530;2023-06-10T01:34:42;11.50;;;9.57;;
59788;SDS011;47353;51.614;5.530;2023-06-10T01:37:09;13.32;;;9.38;;
59788;SDS011;47353;51.614;5.530;2023-06-10T01:39:38;12.32;;;9.77;;
59788;SDS011;47353;51.614;5.530;2023-06-10T01:42:04;11.13;;;9.55;;
59788;SDS011;47353;51.614;5.530;2023-06-10T01:44:31;11.15;;;9.73;;
59788;SDS011;47353;51.614;5.530;2023-06-10T01:46:57;12.00;;;9.82;;
59788;SDS011;47353;51.614;5.530;2023-06-10T01:49:22;11.40;;;9.75;;
59788;SDS011;47353;51.614;5.530;2023-06-10T01:51:49;11.38;;;10.15;;
59788;SDS011;47353;51.614;5.530;2023-06-10T01:54:14;11.95;;;10.60;;
59788;SDS011;47353;51.614;5.530;2023-06-10T01:56:40;11.43;;;10.23;;
59788;SDS011;47353;51.614;5.530;2023-06-10T01:59:05;12.52;;;10.10;;
59788;SDS011;47353;51.614;5.530;2023-06-10T02:01:31;10.80;;;9.70;;
59788;SDS011;47353;51.614;5.530;2023-06-10T02:03:56;12.48;;;10.52;;
59788;SDS011;47353;51.614;5.530;2023-06-10T02:06:21;13.20;;;10.35;;
59788;SDS011;47353;51.614;5.530;2023-06-10T02:08:47;11.68;;;10.45;;
59788;SDS011;47353;51.614;5.530;2023-06-10T02:11:12;11.52;;;10.25;;
59788;SDS011;47353;51.614;5.530;2023-06-10T02:13:38;11.13;;;9.93;;
59788;SDS011;47353;51.614;5.530;2023-06-10T02:16:03;12.02;;;10.80;;
59788;SDS011;47353;51.614;5.530;2023-06-10T02:18:30;12.00;;;10.73;;
59788;SDS011;47353;51.614;5.530;2023-06-10T02:20:56;12.07;;;10.80;;
59788;SDS011;47353;51.614;5.530;2023-06-10T02:23:21;12.23;;;10.95;;
59788;SDS011;47353;51.614;5.530;2023-06-10T02:25:47;12.75;;;10.80;;
59788;SDS011;47353;51.614;5.530;2023-06-10T02:28:13;12.63;;;11.30;;
59788;SDS011;47353;51.614;5.530;2023-06-10T02:30:41;12.45;;;11.00;;
59788;SDS011;47353;51.614;5.530;2023-06-10T02:33:08;12.32;;;11.13;;
59788;SDS011;47353;51.614;5.530;2023-06-10T02:35:37;14.13;;;11.13;;
59788;SDS011;47353;51.614;5.530;2023-06-10T02:38:03;12.20;;;11.00;;
59788;SDS011;47353;51.614;5.530;2023-06-10T02:40:29;12.48;;;11.18;;
59788;SDS011;47353;51.614;5.530;2023-06-10T02:42:55;13.95;;;12.27;;
59788;SDS011;47353;51.614;5.530;2023-06-10T02:45:20;13.00;;;11.50;;
59788;SDS011;47353;51.614;5.530;2023-06-10T02:47:46;13.45;;;11.73;;
59788;SDS011;47353;51.614;5.530;2023-06-10T02:50:11;14.15;;;12.30;;
59788;SDS011;47353;51.614;5.530;2023-06-10T02:52:36;15.82;;;11.90;;
59788;SDS011;47353;51.614;5.530;2023-06-10T02:55:02;13.73;;;12.27;;
59788;SDS011;47353;51.614;5.530;2023-06-10T02:57:27;14.80;;;12.77;;
59788;SDS011;47353;51.614;5.530;2023-06-10T02:59:53;13.38;;;11.90;;
59788;SDS011;47353;51.614;5.530;2023-06-10T03:02:18;17.77;;;12.32;;
59788;SDS011;47353;51.614;5.530;2023-06-10T03:04:44;14.32;;;12.65;;
59788;SDS011;47353;51.614;5.530;2023-06-10T03:07:10;15.32;;;12.27;;
59788;SDS011;47353;51.614;5.530;2023-06-10T03:09:36;13.45;;;12.07;;
59788;SDS011;47353;51.614;5.530;2023-06-10T03:12:01;13.85;;;12.00;;
59788;SDS011;47353;51.614;5.530;2023-06-10T03:14:27;16.45;;;12.77;;
59788;SDS011;47353;51.614;5.530;2023-06-10T03:16:52;16.55;;;12.30;;
59788;SDS011;47353;51.614;5.530;2023-06-10T03:19:18;14.25;;;12.73;;
59788;SDS011;47353;51.614;5.530;2023-06-10T03:21:49;13.52;;;12.13;;
59788;SDS011;47353;51.614;5.530;2023-06-10T03:24:19;15.50;;;12.65;;
59788;SDS011;47353;51.614;5.530;2023-06-10T03:26:44;15.38;;;12.82;;
59788;SDS011;47353;51.614;5.530;2023-06-10T03:29:09;13.93;;;12.45;;
59788;SDS011;47353;51.614;5.530;2023-06-10T03:31:35;13.98;;;12.57;;
59788;SDS011;47353;51.614;5.530;2023-06-10T03:34:03;14.70;;;12.40;;
59788;SDS011;47353;51.614;5.530;2023-06-10T03:36:29;15.40;;;12.00;;
59788;SDS011;47353;51.614;5.530;2023-06-10T03:38:55;15.27;;;12.30;;
59788;SDS011;47353;51.614;5.530;2023-06-10T03:41:21;13.25;;;11.82;;
59788;SDS011;47353;51.614;5.530;2023-06-10T03:43:47;13.73;;;12.32;;
59788;SDS011;47353;51.614;5.530;2023-06-10T03:46:13;16.20;;;12.38;;
59788;SDS011;47353;51.614;5.530;2023-06-10T03:48:38;14.50;;;11.98;;
59788;SDS011;47353;51.614;5.530;2023-06-10T03:51:04;13.27;;;11.88;;
59788;SDS011;47353;51.614;5.530;2023-06-10T03:53:30;12.82;;;11.40;;
59788;SDS011;47353;51.614;5.530;2023-06-10T03:55:55;16.42;;;11.68;;
59788;SDS011;47353;51.614;5.530;2023-06-10T03:58:22;13.63;;;11.63;;
59788;SDS011;47353;51.614;5.530;2023-06-10T04:00:47;12.68;;;11.27;;
59788;SDS011;47353;51.614;5.530;2023-06-10T04:03:14;14.25;;;11.85;;
59788;SDS011;47353;51.614;5.530;2023-06-10T04:05:40;13.45;;;12.07;;
59788;SDS011;47353;51.614;5.530;2023-06-10T04:08:09;15.20;;;11.93;;
59788;SDS011;47353;51.614;5.530;2023-06-10T04:10:34;13.68;;;12.05;;
59788;SDS011;47353;51.614;5.530;2023-06-10T04:12:59;17.90;;;12.10;;
59788;SDS011;47353;51.614;5.530;2023-06-10T04:15:25;12.38;;;11.07;;
59788;SDS011;47353;51.614;5.530;2023-06-10T04:17:50;13.43;;;12.05;;
59788;SDS011;47353;51.614;5.530;2023-06-10T04:20:16;13.65;;;11.30;;
59788;SDS011;47353;51.614;5.530;2023-06-10T04:22:41;15.20;;;11.68;;
59788;SDS011;47353;51.614;5.530;2023-06-10T04:25:08;15.50;;;12.18;;
59788;SDS011;47353;51.614;5.530;2023-06-10T04:27:35;13.70;;;11.77;;
59788;SDS011;47353;51.614;5.530;2023-06-10T04:30:01;14.25;;;11.15;;
59788;SDS011;47353;51.614;5.530;2023-06-10T04:32:27;14.90;;;11.20;;
59788;SDS011;47353;51.614;5.530;2023-06-10T04:34:52;14.55;;;11.35;;
59788;SDS011;47353;51.614;5.530;2023-06-10T04:37:18;14.45;;;11.27;;
59788;SDS011;47353;51.614;5.530;2023-06-10T04:39:43;12.77;;;10.55;;
59788;SDS011;47353;51.614;5.530;2023-06-10T04:42:09;12.80;;;11.50;;
59788;SDS011;47353;51.614;5.530;2023-06-10T04:44:34;14.82;;;10.38;;
59788;SDS011;47353;51.614;5.530;2023-06-10T04:46:59;14.13;;;10.90;;
59788;SDS011;47353;51.614;5.530;2023-06-10T04:49:26;12.15;;;10.85;;
59788;SDS011;47353;51.614;5.530;2023-06-10T04:51:51;14.05;;;11.27;;
59788;SDS011;47353;51.614;5.530;2023-06-10T04:54:16;13.98;;;11.23;;
59788;SDS011;47353;51.614;5.530;2023-06-10T04:56:42;13.43;;;11.60;;
59788;SDS011;47353;51.614;5.530;2023-06-10T04:59:07;15.02;;;11.15;;
59788;SDS011;47353;51.614;5.530;2023-06-10T05:01:32;13.68;;;11.23;;
59788;SDS011;47353;51.614;5.530;2023-06-10T05:03:58;13.85;;;11.02;;
59788;SDS011;47353;51.614;5.530;2023-06-10T05:06:23;14.65;;;10.82;;
59788;SDS011;47353;51.614;5.530;2023-06-10T05:08:49;13.10;;;10.60;;
59788;SDS011;47353;51.614;5.530;2023-06-10T05:11:14;14.40;;;10.50;;
59788;SDS011;47353;51.614;5.530;2023-06-10T05:13:41;12.52;;;11.10;;
59788;SDS011;47353;51.614;5.530;2023-06-10T05:16:07;11.80;;;10.57;;
59788;SDS011;47353;51.614;5.530;2023-06-10T05:18:33;13.30;;;11.05;;
59788;SDS011;47353;51.614;5.530;2023-06-10T05:20:58;15.88;;;10.70;;
59788;SDS011;47353;51.614;5.530;2023-06-10T05:23:24;13.95;;;10.68;;
59788;SDS011;47353;51.614;5.530;2023-06-10T05:25:49;15.25;;;10.27;;
59788;SDS011;47353;51.614;5.530;2023-06-10T05:28:15;14.27;;;10.73;;
59788;SDS011;47353;51.614;5.530;2023-06-10T05:30:40;14.38;;;10.40;;
59788;SDS011;47353;51.614;5.530;2023-06-10T05:33:06;15.48;;;10.82;;
59788;SDS011;47353;51.614;5.530;2023-06-10T05:35:31;14.07;;;10.18;;
59788;SDS011;47353;51.614;5.530;2023-06-10T05:37:57;14.45;;;10.48;;
59788;SDS011;47353;51.614;5.530;2023-06-10T05:40:22;15.15;;;10.38;;
59788;SDS011;47353;51.614;5.530;2023-06-10T05:42:48;13.68;;;10.68;;
59788;SDS011;47353;51.614;5.530;2023-06-10T05:45:13;14.80;;;10.35;;
59788;SDS011;47353;51.614;5.530;2023-06-10T05:47:39;16.55;;;10.43;;
59788;SDS011;47353;51.614;5.530;2023-06-10T05:50:05;12.80;;;10.30;;
59788;SDS011;47353;51.614;5.530;2023-06-10T05:52:35;12.13;;;9.60;;
59788;SDS011;47353;51.614;5.530;2023-06-10T05:55:01;11.57;;;9.85;;
59788;SDS011;47353;51.614;5.530;2023-06-10T05:57:27;14.90;;;9.65;;
59788;SDS011;47353;51.614;5.530;2023-06-10T05:59:53;16.73;;;10.45;;
59788;SDS011;47353;51.614;5.530;2023-06-10T06:02:18;12.18;;;10.07;;
59788;SDS011;47353;51.614;5.530;2023-06-10T06:04:44;13.88;;;9.77;;
59788;SDS011;47353;51.614;5.530;2023-06-10T06:07:09;12.82;;;9.40;;
59788;SDS011;47353;51.614;5.530;2023-06-10T06:09:34;16.70;;;9.88;;
59788;SDS011;47353;51.614;5.530;2023-06-10T06:12:00;10.60;;;9.43;;
59788;SDS011;47353;51.614;5.530;2023-06-10T06:14:25;12.27;;;9.57;;
59788;SDS011;47353;51.614;5.530;2023-06-10T06:16:51;14.32;;;9.70;;
59788;SDS011;47353;51.614;5.530;2023-06-10T06:19:16;12.45;;;9.20;;
59788;SDS011;47353;51.614;5.530;2023-06-10T06:21:42;9.50;;;8.40;;
59788;SDS011;47353;51.614;5.530;2023-06-10T06:24:07;12.90;;;9.25;;
59788;SDS011;47353;51.614;5.530;2023-06-10T06:26:33;13.70;;;8.82;;
59788;SDS011;47353;51.614;5.530;2023-06-10T06:28:58;12.50;;;9.00;;
59788;SDS011;47353;51.614;5.530;2023-06-10T06:31:23;12.52;;;8.88;;
59788;SDS011;47353;51.614;5.530;2023-06-10T06:33:49;13.48;;;9.63;;
59788;SDS011;47353;51.614;5.530;2023-06-10T06:36:14;14.02;;;9.15;;
59788;SDS011;47353;51.614;5.530;2023-06-10T06:38:39;14.85;;;9.32;;
59788;SDS011;47353;51.614;5.530;2023-06-10T06:41:05;12.32;;;8.20;;
59788;SDS011;47353;51.614;5.530;2023-06-10T06:43:31;9.77;;;7.78;;
59788;SDS011;47353;51.614;5.530;2023-06-10T06:45:57;12.77;;;8.95;;
59788;SDS011;47353;51.614;5.530;2023-06-10T06:48:23;12.80;;;7.97;;
59788;SDS011;47353;51.614;5.530;2023-06-10T06:50:49;10.85;;;7.75;;
59788;SDS011;47353;51.614;5.530;2023-06-10T06:53:14;11.07;;;8.30;;
59788;SDS011;47353;51.614;5.530;2023-06-10T06:55:39;13.23;;;7.95;;
59788;SDS011;47353;51.614;5.530;2023-06-10T06:58:05;14.68;;;8.40;;
59788;SDS011;47353;51.614;5.530;2023-06-10T07:00:31;12.57;;;8.00;;
59788;SDS011;47353;51.614;5.530;2023-06-10T07:02:57;12.35;;;8.48;;
59788;SDS011;47353;51.614;5.530;2023-06-10T07:05:23;9.85;;;7.95;;
59788;SDS011;47353;51.614;5.530;2023-06-10T07:07:52;10.85;;;8.20;;
59788;SDS011;47353;51.614;5.530;2023-06-10T07:10:20;10.07;;;7.35;;
59788;SDS011;47353;51.614;5.530;2023-06-10T07:12:47;11.70;;;7.75;;
59788;SDS011;47353;51.614;5.530;2023-06-10T07:15:13;12.77;;;7.55;;
59788;SDS011;47353;51.614;5.530;2023-06-10T07:17:38;12.90;;;7.65;;
59788;SDS011;47353;51.614;5.530;2023-06-10T07:20:04;12.38;;;7.95;;
59788;SDS011;47353;51.614;5.530;2023-06-10T07:22:30;9.02;;;6.88;;
59788;SDS011;47353;51.614;5.530;2023-06-10T07:24:56;13.75;;;8.15;;
59788;SDS011;47353;51.614;5.530;2023-06-10T07:27:21;9.43;;;7.15;;
59788;SDS011;47353;51.614;5.530;2023-06-10T07:29:46;12.80;;;7.60;;
59788;SDS011;47353;51.614;5.530;2023-06-10T07:32:12;14.13;;;7.85;;
59788;SDS011;47353;51.614;5.530;2023-06-10T07:34:37;10.45;;;7.70;;
59788;SDS011;47353;51.614;5.530;2023-06-10T07:37:03;9.95;;;7.57;;
59788;SDS011;47353;51.614;5.530;2023-06-10T07:39:28;11.18;;;7.22;;
59788;SDS011;47353;51.614;5.530;2023-06-10T07:41:54;11.27;;;7.20;;
59788;SDS011;47353;51.614;5.530;2023-06-10T07:44:21;9.98;;;7.15;;
59788;SDS011;47353;51.614;5.530;2023-06-10T07:46:47;10.30;;;7.00;;
59788;SDS011;47353;51.614;5.530;2023-06-10T07:49:12;8.93;;;7.03;;
59788;SDS011;47353;51.614;5.530;2023-06-10T07:51:38;11.10;;;7.00;;
59788;SDS011;47353;51.614;5.530;2023-06-10T07:54:03;10.18;;;6.97;;
59788;SDS011;47353;51.614;5.530;2023-06-10T07:56:29;12.30;;;6.50;;
59788;SDS011;47353;51.614;5.530;2023-06-10T07:58:54;9.60;;;7.40;;
59788;SDS011;47353;51.614;5.530;2023-06-10T08:01:19;9.93;;;7.00;;
59788;SDS011;47353;51.614;5.530;2023-06-10T08:03:45;9.23;;;6.72;;
59788;SDS011;47353;51.614;5.530;2023-06-10T08:06:10;8.77;;;6.55;;
59788;SDS011;47353;51.614;5.530;2023-06-10T08:08:36;11.07;;;6.47;;
59788;SDS011;47353;51.614;5.530;2023-06-10T08:11:07;9.88;;;6.50;;
59788;SDS011;47353;51.614;5.530;2023-06-10T08:13:32;11.02;;;6.43;;
59788;SDS011;47353;51.614;5.530;2023-06-10T08:15:58;9.45;;;6.47;;
59788;SDS011;47353;51.614;5.530;2023-06-10T08:18:23;7.72;;;6.28;;
59788;SDS011;47353;51.614;5.530;2023-06-10T08:20:48;7.35;;;6.03;;
59788;SDS011;47353;51.614;5.530;2023-06-10T08:23:14;9.40;;;6.65;;
59788;SDS011;47353;51.614;5.530;2023-06-10T08:25:39;8.57;;;6.07;;
59788;SDS011;47353;51.614;5.530;2023-06-10T08:28:05;10.48;;;6.38;;
59788;SDS011;47353;51.614;5.530;2023-06-10T08:30:30;10.27;;;5.72;;
59788;SDS011;47353;51.614;5.530;2023-06-10T08:32:56;11.30;;;5.70;;
59788;SDS011;47353;51.614;5.530;2023-06-10T08:35:21;12.00;;;6.63;;
59788;SDS011;47353;51.614;5.530;2023-06-10T08:37:47;10.73;;;5.68;;
59788;SDS011;47353;51.614;5.530;2023-06-10T08:40:12;7.78;;;5.57;;
59788;SDS011;47353;51.614;5.530;2023-06-10T08:42:55;6.07;;;5.47;;
59788;SDS011;47353;51.614;5.530;2023-06-10T08:45:31;8.95;;;6.07;;
59788;SDS011;47353;51.614;5.530;2023-06-10T08:47:57;8.02;;;5.53;;
59788;SDS011;47353;51.614;5.530;2023-06-10T08:50:22;5.82;;;5.07;;
59788;SDS011;47353;51.614;5.530;2023-06-10T08:52:49;8.63;;;5.38;;
59788;SDS011;47353;51.614;5.530;2023-06-10T08:55:27;6.57;;;5.53;;
59788;SDS011;47353;51.614;5.530;2023-06-10T08:57:57;8.15;;;5.38;;
59788;SDS011;47353;51.614;5.530;2023-06-10T09:00:23;8.48;;;5.82;;
59788;SDS011;47353;51.614;5.530;2023-06-10T09:02:51;7.68;;;5.90;;
59788;SDS011;47353;51.614;5.530;2023-06-10T09:05:17;12.48;;;5.50;;
59788;SDS011;47353;51.614;5.530;2023-06-10T09:07:43;6.40;;;5.50;;
59788;SDS011;47353;51.614;5.530;2023-06-10T09:10:11;10.45;;;5.25;;
59788;SDS011;47353;51.614;5.530;2023-06-10T09:12:36;7.97;;;5.28;;
59788;SDS011;47353;51.614;5.530;2023-06-10T09:15:05;8.27;;;5.25;;
59788;SDS011;47353;51.614;5.530;2023-06-10T09:17:31;5.65;;;4.97;;
59788;SDS011;47353;51.614;5.530;2023-06-10T09:19:57;9.68;;;5.05;;
59788;SDS011;47353;51.614;5.530;2023-06-10T09:22:23;6.85;;;4.80;;
59788;SDS011;47353;51.614;5.530;2023-06-10T09:24:49;7.88;;;4.95;;
59788;SDS011;47353;51.614;5.530;2023-06-10T09:27:14;9.63;;;5.60;;
59788;SDS011;47353;51.614;5.530;2023-06-10T09:32:13;6.03;;;5.38;;
59788;SDS011;47353;51.614;5.530;2023-06-10T09:34:39;6.95;;;4.95;;
59788;SDS011;47353;51.614;5.530;2023-06-10T09:37:04;5.63;;;5.03;;
59788;SDS011;47353;51.614;5.530;2023-06-10T09:39:30;7.32;;;5.18;;
59788;SDS011;47353;51.614;5.530;2023-06-10T09:41:56;6.20;;;5.30;;
59788;SDS011;47353;51.614;5.530;2023-06-10T09:44:21;5.82;;;5.25;;
59788;SDS011;47353;51.614;5.530;2023-06-10T09:46:49;8.10;;;5.03;;
59788;SDS011;47353;51.614;5.530;2023-06-10T09:49:19;6.18;;;4.38;;
59788;SDS011;47353;51.614;5.530;2023-06-10T09:51:51;9.15;;;4.85;;
59788;SDS011;47353;51.614;5.530;2023-06-10T09:54:18;7.60;;;5.30;;
59788;SDS011;47353;51.614;5.530;2023-06-10T09:56:46;9.75;;;5.20;;
59788;SDS011;47353;51.614;5.530;2023-06-10T09:59:12;7.07;;;5.25;;
59788;SDS011;47353;51.614;5.530;2023-06-10T10:01:38;6.07;;;4.75;;
59788;SDS011;47353;51.614;5.530;2023-06-10T10:04:03;7.78;;;4.93;;
59788;SDS011;47353;51.614;5.530;2023-06-10T10:06:29;8.40;;;5.05;;
59788;SDS011;47353;51.614;5.530;2023-06-10T10:08:55;9.07;;;5.10;;
59788;SDS011;47353;51.614;5.530;2023-06-10T10:11:21;8.82;;;5.13;;
59788;SDS011;47353;51.614;5.530;2023-06-10T10:13:48;5.55;;;5.05;;
59788;SDS011;47353;51.614;5.530;2023-06-10T10:16:21;6.63;;;5.00;;
59788;SDS011;47353;51.614;5.530;2023-06-10T10:19:07;7.68;;;5.05;;
59788;SDS011;47353;51.614;5.530;2023-06-10T10:21:50;10.68;;;5.00;;
59788;SDS011;47353;51.614;5.530;2023-06-10T10:24:20;7.40;;;4.80;;
59788;SDS011;47353;51.614;5.530;2023-06-10T10:26:47;6.40;;;4.78;;
59788;SDS011;47353;51.614;5.530;2023-06-10T10:29:15;10.05;;;5.32;;
59788;SDS011;47353;51.614;5.530;2023-06-10T10:31:51;7.15;;;4.78;;
59788;SDS011;47353;51.614;5.530;2023-06-10T10:34:21;7.03;;;5.00;;
59788;SDS011;47353;51.614;5.530;2023-06-10T10:36:50;7.25;;;4.97;;
59788;SDS011;47353;51.614;5.530;2023-06-10T10:39:16;6.07;;;4.90;;
59788;SDS011;47353;51.614;5.530;2023-06-10T10:41:43;5.30;;;4.80;;
59788;SDS011;47353;51.614;5.530;2023-06-10T10:44:09;6.95;;;5.13;;
59788;SDS011;47353;51.614;5.530;2023-06-10T10:47:10;6.32;;;4.93;;
59788;SDS011;47353;51.614;5.530;2023-06-10T10:49:32;7.80;;;5.13;;
59788;SDS011;47353;51.614;5.530;2023-06-10T10:52:01;7.68;;;4.80;;
59788;SDS011;47353;51.614;5.530;2023-06-10T10:54:33;7.72;;;5.20;;
59788;SDS011;47353;51.614;5.530;2023-06-10T11:04:58;7.03;;;5.13;;
59788;SDS011;47353;51.614;5.530;2023-06-10T11:07:25;7.80;;;5.05;;
59788;SDS011;47353;51.614;5.530;2023-06-10T11:10:01;8.38;;;4.82;;
59788;SDS011;47353;51.614;5.530;2023-06-10T11:15:32;5.85;;;5.25;;
59788;SDS011;47353;51.614;5.530;2023-06-10T11:18:13;7.25;;;5.00;;
59788;SDS011;47353;51.614;5.530;2023-06-10T11:26:15;7.45;;;5.15;;
59788;SDS011;47353;51.614;5.530;2023-06-10T11:29:04;5.78;;;4.95;;
59788;SDS011;47353;51.614;5.530;2023-06-10T11:34:04;7.95;;;5.00;;
59788;SDS011;47353;51.614;5.530;2023-06-10T11:36:32;7.72;;;4.80;;
59788;SDS011;47353;51.614;5.530;2023-06-10T11:39:10;6.00;;;4.70;;
59788;SDS011;47353;51.614;5.530;2023-06-10T11:41:37;6.65;;;5.22;;
59788;SDS011;47353;51.614;5.530;2023-06-10T11:44:05;7.22;;;5.28;;
59788;SDS011;47353;51.614;5.530;2023-06-10T11:46:33;7.50;;;5.32;;
59788;SDS011;47353;51.614;5.530;2023-06-10T11:49:00;6.68;;;4.82;;
59788;SDS011;47353;51.614;5.530;2023-06-10T11:51:32;6.72;;;4.90;;
59788;SDS011;47353;51.614;5.530;2023-06-10T11:53:59;9.23;;;5.35;;
59788;SDS011;47353;51.614;5.530;2023-06-10T11:56:28;7.05;;;5.07;;
59788;SDS011;47353;51.614;5.530;2023-06-10T11:58:59;6.97;;;5.03;;
59788;SDS011;47353;51.614;5.530;2023-06-10T12:01:40;6.20;;;4.70;;
59788;SDS011;47353;51.614;5.530;2023-06-10T12:04:09;7.32;;;5.20;;
59788;SDS011;47353;51.614;5.530;2023-06-10T12:06:39;6.95;;;5.00;;
59788;SDS011;47353;51.614;5.530;2023-06-10T12:09:18;7.82;;;4.90;;
59788;SDS011;47353;51.614;5.530;2023-06-10T12:11:43;7.85;;;5.05;;
59788;SDS011;47353;51.614;5.530;2023-06-10T12:14:09;5.45;;;4.90;;
59788;SDS011;47353;51.614;5.530;2023-06-10T12:16:35;5.30;;;4.78;;
59788;SDS011;47353;51.614;5.530;2023-06-10T12:19:01;6.05;;;4.90;;
59788;SDS011;47353;51.614;5.530;2023-06-10T12:21:28;6.45;;;5.20;;
59788;SDS011;47353;51.614;5.530;2023-06-10T12:24:04;7.00;;;4.88;;
59788;SDS011;47353;51.614;5.530;2023-06-10T12:26:38;9.75;;;5.03;;
59788;SDS011;47353;51.614;5.530;2023-06-10T12:29:38;8.18;;;5.15;;
59788;SDS011;47353;51.614;5.530;2023-06-10T12:32:03;7.18;;;5.38;;
59788;SDS011;47353;51.614;5.530;2023-06-10T12:37:00;7.43;;;5.07;;
59788;SDS011;47353;51.614;5.530;2023-06-10T12:39:29;7.97;;;5.05;;
59788;SDS011;47353;51.614;5.530;2023-06-10T12:41:58;7.18;;;5.03;;
59788;SDS011;47353;51.614;5.530;2023-06-10T12:44:30;6.80;;;5.28;;
59788;SDS011;47353;51.614;5.530;2023-06-10T12:46:57;8.45;;;5.30;;
59788;SDS011;47353;51.614;5.530;2023-06-10T12:49:22;6.57;;;5.30;;
59788;SDS011;47353;51.614;5.530;2023-06-10T12:51:48;8.15;;;5.32;;
59788;SDS011;47353;51.614;5.530;2023-06-10T12:54:13;7.15;;;4.97;;
59788;SDS011;47353;51.614;5.530;2023-06-10T12:56:39;6.43;;;4.80;;
59788;SDS011;47353;51.614;5.530;2023-06-10T12:59:04;6.97;;;5.00;;
59788;SDS011;47353;51.614;5.530;2023-06-10T13:01:30;6.78;;;5.03;;
59788;SDS011;47353;51.614;5.530;2023-06-10T13:03:56;6.80;;;4.97;;
59788;SDS011;47353;51.614;5.530;2023-06-10T13:06:22;6.30;;;5.10;;
59788;SDS011;47353;51.614;5.530;2023-06-10T13:08:47;5.25;;;4.75;;
59788;SDS011;47353;51.614;5.530;2023-06-10T13:11:13;6.88;;;5.20;;
59788;SDS011;47353;51.614;5.530;2023-06-10T13:13:38;8.10;;;5.22;;
59788;SDS011;47353;51.614;5.530;2023-06-10T13:16:04;6.90;;;5.70;;
59788;SDS011;47353;51.614;5.530;2023-06-10T13:18:30;6.05;;;4.95;;
59788;SDS011;47353;51.614;5.530;2023-06-10T13:21:02;5.55;;;4.88;;
59788;SDS011;47353;51.614;5.530;2023-06-10T13:23:30;5.60;;;5.10;;
59788;SDS011;47353;51.614;5.530;2023-06-10T13:25:56;7.15;;;5.38;;
59788;SDS011;47353;51.614;5.530;2023-06-10T13:28:22;5.95;;;4.85;;
59788;SDS011;47353;51.614;5.530;2023-06-10T13:30:47;10.27;;;5.07;;
59788;SDS011;47353;51.614;5.530;2023-06-10T13:33:13;8.20;;;4.90;;
59788;SDS011;47353;51.614;5.530;2023-06-10T13:35:38;7.38;;;5.18;;
59788;SDS011;47353;51.614;5.530;2023-06-10T13:38:03;7.68;;;5.10;;
59788;SDS011;47353;51.614;5.530;2023-06-10T13:40:29;7.40;;;5.28;;
59788;SDS011;47353;51.614;5.530;2023-06-10T13:42:54;5.40;;;5.00;;
59788;SDS011;47353;51.614;5.530;2023-06-10T13:45:20;8.25;;;4.93;;
59788;SDS011;47353;51.614;5.530;2023-06-10T13:47:46;8.73;;;4.82;;
59788;SDS011;47353;51.614;5.530;2023-06-10T13:50:11;7.25;;;4.80;;
59788;SDS011;47353;51.614;5.530;2023-06-10T13:52:38;6.65;;;4.60;;
59788;SDS011;47353;51.614;5.530;2023-06-10T13:55:03;6.05;;;4.93;;
59788;SDS011;47353;51.614;5.530;2023-06-10T13:57:29;7.63;;;5.35;;
59788;SDS011;47353;51.614;5.530;2023-06-10T13:59:55;6.25;;;5.00;;
59788;SDS011;47353;51.614;5.530;2023-06-10T14:02:21;6.38;;;4.68;;
59788;SDS011;47353;51.614;5.530;2023-06-10T14:04:47;5.82;;;5.05;;
59788;SDS011;47353;51.614;5.530;2023-06-10T14:07:12;9.43;;;4.80;;
59788;SDS011;47353;51.614;5.530;2023-06-10T14:09:37;6.70;;;4.88;;
59788;SDS011;47353;51.614;5.530;2023-06-10T14:12:03;7.43;;;5.03;;
59788;SDS011;47353;51.614;5.530;2023-06-10T14:14:30;5.30;;;4.80;;
59788;SDS011;47353;51.614;5.530;2023-06-10T14:16:59;6.30;;;5.05;;
59788;SDS011;47353;51.614;5.530;2023-06-10T14:19:24;7.07;;;4.60;;
59788;SDS011;47353;51.614;5.530;2023-06-10T14:21:50;5.38;;;4.38;;
59788;SDS011;47353;51.614;5.530;2023-06-10T14:24:16;6.07;;;4.75;;
59788;SDS011;47353;51.614;5.530;2023-06-10T14:26:41;7.53;;;4.82;;
59788;SDS011;47353;51.614;5.530;2023-06-10T14:29:06;6.47;;;4.53;;
59788;SDS011;47353;51.614;5.530;2023-06-10T14:31:33;5.28;;;4.60;;
59788;SDS011;47353;51.614;5.530;2023-06-10T14:33:59;7.65;;;4.50;;
59788;SDS011;47353;51.614;5.530;2023-06-10T14:36:24;6.07;;;4.82;;
59788;SDS011;47353;51.614;5.530;2023-06-10T14:38:50;7.07;;;4.80;;
59788;SDS011;47353;51.614;5.530;2023-06-10T14:41:15;5.30;;;4.80;;
59788;SDS011;47353;51.614;5.530;2023-06-10T14:43:41;5.63;;;4.55;;
59788;SDS011;47353;51.614;5.530;2023-06-10T14:46:06;6.28;;;4.57;;
59788;SDS011;47353;51.614;5.530;2023-06-10T14:48:32;5.35;;;4.82;;
59788;SDS011;47353;51.614;5.530;2023-06-10T14:50:57;5.47;;;4.80;;
59788;SDS011;47353;51.614;5.530;2023-06-10T14:53:22;6.78;;;4.70;;
59788;SDS011;47353;51.614;5.530;2023-06-10T14:55:48;6.30;;;4.78;;
59788;SDS011;47353;51.614;5.530;2023-06-10T14:58:13;6.45;;;5.60;;
59788;SDS011;47353;51.614;5.530;2023-06-10T15:00:39;6.78;;;5.28;;
59788;SDS011;47353;51.614;5.530;2023-06-10T15:03:04;5.55;;;4.78;;
59788;SDS011;47353;51.614;5.530;2023-06-10T15:05:29;8.00;;;4.88;;
59788;SDS011;47353;51.614;5.530;2023-06-10T15:07:55;7.35;;;5.10;;